| time (UTC) | temp C | wind direction | speed KPH | gust KPH | rain 1hr cm | rain 24hr cm | rain mn cm | humidity % | barometer mb |
| 20260505153003 | 19 | 93 | 0.0 | 1.6 | 0.00 | 0.23 | 0.23 | 93 | 997.2 |
| 20260505152503 | 19 | 93 | 0.0 | 1.6 | 0.00 | 0.23 | 0.23 | 93 | 997.2 |
| 20260505152003 | 19 | 94 | 0.0 | 3.2 | 0.00 | 0.23 | 0.23 | 93 | 997.2 |
| 20260505151503 | 19 | 94 | 0.0 | 3.2 | 0.00 | 0.23 | 0.23 | 93 | 997.0 |
| 20260505151003 | 19 | 94 | 0.0 | 3.2 | 0.00 | 0.23 | 0.23 | 93 | 997.0 |
| 20260505150503 | 18 | 94 | 0.0 | 4.8 | 0.00 | 0.23 | 0.23 | 93 | 997.1 |
| 20260505140503 | 18 | 0 | 0.0 | 0.0 | 0.03 | 0.23 | 0.23 | 93 | 997.5 |
| 20260505125003 | 17 | 94 | 1.6 | 3.2 | 0.05 | 0.18 | 0.18 | 92 | 997.6 |
| 20260505124503 | 17 | 94 | 1.6 | 4.8 | 0.03 | 0.15 | 0.15 | 91 | 997.5 |
| 20260505124003 | 17 | 94 | 1.6 | 4.8 | 0.03 | 0.15 | 0.15 | 91 | 997.4 |
| 20260505123503 | 17 | 94 | 1.6 | 4.8 | 0.03 | 0.15 | 0.15 | 91 | 997.4 |
| 20260505123004 | 17 | 95 | 3.2 | 4.8 | 0.03 | 0.15 | 0.15 | 91 | 997.2 |
| 20260505122503 | 17 | 95 | 3.2 | 4.8 | 0.03 | 0.15 | 0.15 | 90 | 997.2 |
| 20260505122003 | 18 | 95 | 3.2 | 4.8 | 0.03 | 0.15 | 0.15 | 90 | 997.2 |
| 20260505121003 | 18 | 94 | 1.6 | 3.2 | 0.00 | 0.13 | 0.13 | 90 | 997.1 |
| 20260505120503 | 18 | 94 | 1.6 | 3.2 | 0.00 | 0.13 | 0.13 | 90 | 996.9 |
| 20260505120004 | 18 | 94 | 1.6 | 3.2 | 0.00 | 0.13 | 0.13 | 90 | 996.9 |
| 20260505115503 | 18 | 94 | 1.6 | 3.2 | 0.00 | 0.13 | 0.13 | 90 | 996.8 |
| 20260505115003 | 18 | 95 | 0.0 | 3.2 | 0.00 | 0.13 | 0.13 | 90 | 996.7 |
| 20260505114503 | 18 | 95 | 1.6 | 4.8 | 0.00 | 0.13 | 0.13 | 90 | 996.6 |
| 20260505114003 | 18 | 95 | 0.0 | 4.8 | 0.00 | 0.13 | 0.13 | 90 | 996.6 |
| 20260505113503 | 18 | 0 | 0.0 | 0.0 | 0.00 | 0.13 | 0.13 | 90 | 996.5 |
| 20260505113003 | 18 | 0 | 0.0 | 0.0 | 0.00 | 0.13 | 0.13 | 90 | 996.5 |
| 20260505112504 | 18 | 0 | 0.0 | 0.0 | 0.00 | 0.13 | 0.13 | 90 | 996.4 |
| 20260505112003 | 18 | 0 | 0.0 | 0.0 | 0.00 | 0.13 | 0.13 | 90 | 996.5 |
| 20260505111503 | 18 | 0 | 0.0 | 0.0 | 0.00 | 0.13 | 0.13 | 90 | 996.4 |
| 20260505110504 | 18 | 0 | 0.0 | 0.0 | 0.00 | 0.13 | 0.13 | 90 | 996.3 |
| 20260505102003 | 18 | 95 | 0.0 | 1.6 | 0.08 | 0.13 | 0.13 | 89 | 996.9 |
| 20260505101504 | 18 | 0 | 0.0 | 0.0 | 0.08 | 0.13 | 0.13 | 89 | 996.3 |
| 20260505100004 | 18 | 0 | 0.0 | 0.0 | 0.13 | 0.13 | 0.13 | 88 | 995.0 |
| 20260505095503 | 18 | 102 | 0.0 | 1.6 | 0.13 | 0.13 | 0.13 | 87 | 995.2 |
| 20260505095004 | 18 | 102 | 0.0 | 1.6 | 0.13 | 0.13 | 0.13 | 87 | 995.3 |
| 20260505094003 | 18 | 102 | 0.0 | 3.2 | 0.13 | 0.13 | 0.13 | 86 | 995.2 |
| 20260505093503 | 19 | 102 | 0.0 | 3.2 | 0.13 | 0.13 | 0.13 | 85 | 995.2 |
| 20260505093003 | 19 | 105 | 1.6 | 4.8 | 0.10 | 0.10 | 0.10 | 84 | 995.1 |
| 20260505092504 | 19 | 104 | 3.2 | 6.4 | 0.08 | 0.08 | 0.08 | 82 | 994.5 |
| 20260505091503 | 20 | 96 | 3.2 | 4.8 | 0.05 | 0.05 | 0.05 | 81 | 994.9 |
| 20260505091003 | 19 | 93 | 0.0 | 4.8 | 0.00 | 0.00 | 0.00 | 80 | 995.4 |
| 20260505090503 | 19 | 90 | 0.0 | 3.2 | 0.00 | 0.00 | 0.00 | 78 | 995.7 |
| 20260505090004 | 19 | 90 | 0.0 | 3.2 | 0.00 | 0.00 | 0.00 | 77 | 995.6 |
| 20260505085003 | 18 | 90 | 0.0 | 4.8 | 0.00 | 0.00 | 0.00 | 79 | 995.4 |
| 20260505084503 | 18 | 0 | 0.0 | 0.0 | 0.00 | 0.00 | 0.00 | 79 | 995.7 |
| 20260505084003 | 18 | 0 | 0.0 | 0.0 | 0.00 | 0.00 | 0.00 | 78 | 996.1 |
| 20260505083004 | 18 | 0 | 0.0 | 0.0 | 0.00 | 0.00 | 0.00 | 78 | 996.3 |
| 20260505082503 | 18 | 0 | 0.0 | 0.0 | 0.00 | 0.00 | 0.00 | 78 | 996.3 |
| 20260505082004 | 18 | 0 | 0.0 | 0.0 | 0.00 | 0.00 | 0.00 | 78 | 996.2 |
| 20260505081503 | 18 | 0 | 0.0 | 0.0 | 0.00 | 0.00 | 0.00 | 78 | 996.1 |
| 20260505080503 | 18 | 0 | 0.0 | 0.0 | 0.00 | 0.00 | 0.00 | 79 | 996.2 |
| 20260505080003 | 18 | 0 | 0.0 | 0.0 | 0.00 | 0.00 | 0.00 | 78 | 996.2 |
| 20260505075503 | 18 | 0 | 0.0 | 0.0 | 0.00 | 0.00 | 0.00 | 78 | 996.5 |
| 20260505075003 | 18 | 0 | 0.0 | 0.0 | 0.00 | 0.00 | 0.00 | 79 | 996.5 |
| 20260505074503 | 18 | 0 | 0.0 | 0.0 | 0.00 | 0.00 | 0.00 | 79 | 996.5 |
| 20260505074004 | 18 | 0 | 0.0 | 0.0 | 0.00 | 0.00 | 0.00 | 78 | 996.1 |
| 20260505073503 | 18 | 0 | 0.0 | 0.0 | 0.00 | 0.00 | 0.00 | 79 | 996.3 |
| 20260505073004 | 18 | 0 | 0.0 | 0.0 | 0.00 | 0.00 | 0.00 | 79 | 996.4 |
| 20260505072503 | 18 | 0 | 0.0 | 0.0 | 0.00 | 0.00 | 0.00 | 79 | 996.5 |
| 20260505071003 | 18 | 0 | 0.0 | 0.0 | 0.00 | 0.00 | 0.00 | 78 | 996.5 |
| 20260505070004 | 18 | 0 | 0.0 | 0.0 | 0.00 | 0.00 | 0.00 | 78 | 997.0 |
| 20260505065503 | 18 | 0 | 0.0 | 0.0 | 0.00 | 0.00 | 0.00 | 78 | 997.3 |
| 20260505065003 | 18 | 0 | 0.0 | 0.0 | 0.00 | 0.00 | 0.00 | 77 | 997.4 |
| 20260505064504 | 18 | 0 | 0.0 | 0.0 | 0.00 | 0.00 | 0.00 | 77 | 997.4 |
| 20260505063503 | 18 | 0 | 0.0 | 0.0 | 0.00 | 0.00 | 0.00 | 77 | 997.7 |
| 20260505063003 | 18 | 0 | 0.0 | 0.0 | 0.00 | 0.00 | 0.00 | 77 | 997.8 |
| 20260505062503 | 18 | 0 | 0.0 | 0.0 | 0.00 | 0.00 | 0.00 | 77 | 997.8 |
| 20260505061503 | 18 | 0 | 0.0 | 0.0 | 0.00 | 0.00 | 0.00 | 77 | 997.7 |
| 20260505060503 | 18 | 0 | 0.0 | 0.0 | 0.00 | 0.00 | 0.00 | 77 | 997.6 |
| 20260505060003 | 18 | 0 | 0.0 | 0.0 | 0.00 | 0.00 | 0.00 | 77 | 997.7 |
| 20260505055504 | 18 | 0 | 0.0 | 0.0 | 0.00 | 0.00 | 0.00 | 77 | 997.7 |
| 20260505055003 | 18 | 0 | 0.0 | 0.0 | 0.00 | 0.00 | 0.00 | 77 | 997.9 |
| 20260505054504 | 18 | 0 | 0.0 | 0.0 | 0.00 | 0.00 | 0.00 | 76 | 997.9 |
| 20260505054004 | 18 | 0 | 0.0 | 0.0 | 0.00 | 0.00 | 0.00 | 77 | 997.9 |
| 20260505053503 | 18 | 0 | 0.0 | 0.0 | 0.00 | 0.00 | 0.00 | 76 | 997.9 |
| 20260505053004 | 18 | 0 | 0.0 | 0.0 | 0.00 | 0.00 | 0.00 | 76 | 997.9 |
| 20260505052503 | 18 | 0 | 0.0 | 0.0 | 0.00 | 0.00 | 0.00 | 76 | 997.8 |
| 20260505052003 | 18 | 0 | 0.0 | 0.0 | 0.00 | 0.00 | 0.00 | 76 | 997.8 |
| 20260505051504 | 18 | 0 | 0.0 | 0.0 | 0.00 | 0.00 | 0.00 | 76 | 998.1 |
| 20260505041003 | 19 | 0 | 0.0 | 0.0 | 0.00 | 0.00 | 0.00 | 75 | 998.7 |
| 20260505040503 | 19 | 0 | 0.0 | 0.0 | 0.00 | 0.00 | 0.00 | 75 | 998.6 |
| 20260505040004 | 19 | 0 | 0.0 | 0.0 | 0.00 | 0.00 | 0.00 | 74 | 998.7 |
| 20260505035503 | 19 | 0 | 0.0 | 0.0 | 0.00 | 0.00 | 0.00 | 74 | 998.6 |
| 20260505035004 | 19 | 0 | 0.0 | 0.0 | 0.00 | 0.00 | 0.00 | 73 | 998.6 |
| 20260505034503 | 20 | 0 | 0.0 | 0.0 | 0.00 | 0.00 | 0.00 | 73 | 998.7 |
| 20260505033503 | 20 | 0 | 0.0 | 0.0 | 0.00 | 0.00 | 0.00 | 73 | 998.7 |
| 20260505033003 | 20 | 0 | 0.0 | 0.0 | 0.00 | 0.00 | 0.00 | 73 | 998.7 |
| 20260505032503 | 20 | 0 | 0.0 | 0.0 | 0.00 | 0.00 | 0.00 | 72 | 998.6 |
| 20260505031503 | 20 | 0 | 0.0 | 0.0 | 0.00 | 0.00 | 0.00 | 72 | 998.8 |
| 20260505031004 | 20 | 0 | 0.0 | 0.0 | 0.00 | 0.00 | 0.00 | 72 | 998.7 |
| 20260505030003 | 20 | 0 | 0.0 | 0.0 | 0.00 | 0.00 | 0.00 | 71 | 998.8 |
| 20260505025503 | 20 | 0 | 0.0 | 0.0 | 0.00 | 0.00 | 0.00 | 71 | 998.8 |
| 20260505024503 | 20 | 0 | 0.0 | 0.0 | 0.00 | 0.00 | 0.00 | 71 | 998.6 |
| 20260505024003 | 21 | 0 | 0.0 | 0.0 | 0.00 | 0.00 | 0.00 | 70 | 998.4 |
| 20260505023503 | 21 | 0 | 0.0 | 0.0 | 0.00 | 0.00 | 0.00 | 69 | 998.3 |
| 20260505023004 | 21 | 0 | 0.0 | 0.0 | 0.00 | 0.00 | 0.00 | 69 | 998.3 |
| 20260505022503 | 21 | 0 | 0.0 | 0.0 | 0.00 | 0.00 | 0.00 | 69 | 998.2 |
| 20260505022003 | 21 | 0 | 0.0 | 0.0 | 0.00 | 0.00 | 0.00 | 69 | 998.2 |
| 20260505021503 | 21 | 0 | 0.0 | 0.0 | 0.00 | 0.00 | 0.00 | 68 | 998.0 |
| 20260505021003 | 21 | 0 | 0.0 | 0.0 | 0.00 | 0.00 | 0.00 | 68 | 997.9 |
| 20260505020504 | 21 | 0 | 0.0 | 0.0 | 0.00 | 0.00 | 0.00 | 68 | 998.1 |
| 20260505020003 | 21 | 0 | 0.0 | 0.0 | 0.00 | 0.00 | 0.00 | 68 | 997.9 |
| 20260505015503 | 22 | 0 | 0.0 | 0.0 | 0.00 | 0.00 | 0.00 | 67 | 997.9 |
| 20260505015003 | 22 | 0 | 0.0 | 0.0 | 0.00 | 0.00 | 0.00 | 66 | 997.9 |
| 20260505014503 | 22 | 0 | 0.0 | 0.0 | 0.00 | 0.00 | 0.00 | 66 | 997.8 |
| 20260505014004 | 22 | 0 | 0.0 | 0.0 | 0.00 | 0.00 | 0.00 | 65 | 997.9 |
| 20260505013503 | 22 | 0 | 0.0 | 0.0 | 0.00 | 0.00 | 0.00 | 65 | 997.7 |
| 20260505012503 | 23 | 0 | 0.0 | 0.0 | 0.00 | 0.00 | 0.00 | 64 | 997.4 |
| 20260505011504 | 23 | 0 | 0.0 | 0.0 | 0.00 | 0.00 | 0.00 | 64 | 997.5 |
| 20260505011003 | 23 | 0 | 0.0 | 0.0 | 0.00 | 0.00 | 0.00 | 63 | 997.5 |
| 20260505005503 | 23 | 0 | 0.0 | 0.0 | 0.00 | 0.00 | 0.00 | 61 | 997.5 |
| 20260505005003 | 24 | 0 | 0.0 | 0.0 | 0.00 | 0.00 | 0.00 | 60 | 997.3 |
| 20260505004503 | 24 | 24 | 0.0 | 3.2 | 0.00 | 0.00 | 0.00 | 60 | 997.4 |
| 20260505004003 | 24 | 22 | 0.0 | 3.2 | 0.00 | 0.00 | 0.00 | 60 | 997.4 |
| 20260505003503 | 24 | 52 | 0.0 | 3.2 | 0.00 | 0.00 | 0.00 | 60 | 997.3 |
| 20260505003004 | 24 | 85 | 0.0 | 3.2 | 0.00 | 0.00 | 0.00 | 59 | 997.4 |
| 20260505002503 | 24 | 327 | 0.0 | 4.8 | 0.00 | 0.00 | 0.00 | 59 | 997.4 |
| 20260505001503 | 25 | 9 | 0.0 | 3.2 | 0.00 | 0.00 | 0.00 | 59 | 997.3 |
| 20260505001003 | 25 | 343 | 0.0 | 4.8 | 0.00 | 0.00 | 0.00 | 59 | 997.3 |
| 20260505000504 | 25 | 332 | 0.0 | 4.8 | 0.00 | 0.00 | 0.00 | 58 | 997.4 |
| 20260504235503 | 25 | 287 | 0.0 | 3.2 | 0.00 | 0.00 | 0.00 | 58 | 997.4 |
| 20260504235003 | 25 | 286 | 0.0 | 1.6 | 0.00 | 0.00 | 0.00 | 57 | 997.5 |
| 20260504234504 | 25 | 304 | 0.0 | 4.8 | 0.00 | 0.00 | 0.00 | 57 | 997.5 |
| 20260504233503 | 25 | 320 | 0.0 | 4.8 | 0.00 | 0.00 | 0.00 | 57 | 997.6 |
| 20260504233003 | 25 | 329 | 0.0 | 6.4 | 0.00 | 0.00 | 0.00 | 56 | 997.6 |
| 20260504232503 | 25 | 277 | 1.6 | 6.4 | 0.00 | 0.00 | 0.00 | 56 | 997.6 |
| 20260504232003 | 25 | 66 | 1.6 | 4.8 | 0.00 | 0.00 | 0.00 | 55 | 997.6 |
| 20260504231504 | 25 | 77 | 1.6 | 4.8 | 0.00 | 0.00 | 0.00 | 56 | 997.7 |
| 20260504231003 | 25 | 89 | 1.6 | 4.8 | 0.00 | 0.00 | 0.00 | 55 | 997.8 |
| 20260504230503 | 26 | 243 | 1.6 | 6.4 | 0.00 | 0.00 | 0.00 | 55 | 997.8 |
| 20260504230004 | 26 | 240 | 1.6 | 6.4 | 0.00 | 0.00 | 0.00 | 54 | 997.9 |
| 20260504225503 | 26 | 251 | 0.0 | 4.8 | 0.00 | 0.00 | 0.00 | 55 | 998.0 |
| 20260504225004 | 26 | 294 | 0.0 | 6.4 | 0.00 | 0.00 | 0.00 | 55 | 997.9 |
| 20260504224504 | 26 | 279 | 1.6 | 6.4 | 0.00 | 0.00 | 0.00 | 55 | 998.0 |
| 20260504223503 | 26 | 280 | 1.6 | 8.0 | 0.00 | 0.00 | 0.00 | 55 | 998.1 |
| 20260504223004 | 26 | 260 | 1.6 | 8.0 | 0.00 | 0.00 | 0.00 | 54 | 998.2 |
| 20260504222502 | 26 | 254 | 3.2 | 12.9 | 0.00 | 0.00 | 0.00 | 54 | 998.2 |
| 20260504222003 | 26 | 270 | 3.2 | 12.9 | 0.00 | 0.00 | 0.00 | 53 | 998.2 |
| 20260504221503 | 26 | 276 | 3.2 | 12.9 | 0.00 | 0.00 | 0.00 | 53 | 998.2 |
| 20260504221003 | 26 | 275 | 4.8 | 12.9 | 0.00 | 0.00 | 0.00 | 52 | 998.3 |
| 20260504220504 | 26 | 275 | 4.8 | 14.5 | 0.00 | 0.00 | 0.00 | 52 | 998.3 |
| 20260504220004 | 27 | 270 | 3.2 | 14.5 | 0.00 | 0.00 | 0.00 | 52 | 998.4 |
| 20260504215503 | 27 | 136 | 1.6 | 9.7 | 0.00 | 0.00 | 0.00 | 52 | 998.4 |
| 20260504215003 | 27 | 265 | 1.6 | 9.7 | 0.00 | 0.00 | 0.00 | 51 | 998.4 |
| 20260504214503 | 27 | 251 | 3.2 | 11.3 | 0.00 | 0.00 | 0.00 | 51 | 998.5 |
| 20260504214003 | 27 | 270 | 3.2 | 11.3 | 0.00 | 0.00 | 0.00 | 50 | 998.5 |
| 20260504213502 | 27 | 275 | 3.2 | 8.0 | 0.00 | 0.00 | 0.00 | 51 | 998.6 |
| 20260504213004 | 28 | 265 | 3.2 | 8.0 | 0.00 | 0.00 | 0.00 | 49 | 998.7 |
| 20260504212503 | 28 | 249 | 3.2 | 8.0 | 0.00 | 0.00 | 0.00 | 49 | 998.7 |
| 20260504212003 | 28 | 240 | 1.6 | 6.4 | 0.00 | 0.00 | 0.00 | 49 | 998.6 |
| 20260504211503 | 28 | 258 | 3.2 | 9.7 | 0.00 | 0.00 | 0.00 | 50 | 998.7 |
| 20260504211003 | 27 | 268 | 4.8 | 12.9 | 0.00 | 0.00 | 0.00 | 50 | 998.7 |
| 20260504210503 | 28 | 265 | 3.2 | 12.9 | 0.00 | 0.00 | 0.00 | 50 | 998.8 |
| 20260504210003 | 28 | 257 | 1.6 | 12.9 | 0.00 | 0.00 | 0.00 | 50 | 998.9 |
| 20260504205504 | 27 | 256 | 3.2 | 12.9 | 0.00 | 0.00 | 0.00 | 50 | 999.0 |
| 20260504205003 | 27 | 263 | 3.2 | 12.9 | 0.00 | 0.00 | 0.00 | 49 | 999.0 |
| 20260504203503 | 27 | 267 | 4.8 | 17.7 | 0.00 | 0.00 | 0.00 | 48 | 999.3 |
| 20260504202503 | 27 | 277 | 3.2 | 14.5 | 0.00 | 0.00 | 0.00 | 50 | 999.5 |
| 20260504202003 | 27 | 269 | 4.8 | 17.7 | 0.00 | 0.00 | 0.00 | 48 | 999.5 |
| 20260504201503 | 27 | 262 | 6.4 | 17.7 | 0.00 | 0.00 | 0.00 | 47 | 999.7 |
| 20260504201002 | 27 | 268 | 4.8 | 14.5 | 0.00 | 0.00 | 0.00 | 48 | 999.7 |
| 20260504200503 | 27 | 272 | 3.2 | 11.3 | 0.00 | 0.00 | 0.00 | 48 | 999.8 |
| 20260504200004 | 27 | 268 | 4.8 | 17.7 | 0.00 | 0.00 | 0.00 | 49 | 999.8 |
| 20260504195503 | 27 | 267 | 4.8 | 17.7 | 0.00 | 0.00 | 0.00 | 48 | 999.9 |
| 20260504195004 | 28 | 261 | 3.2 | 9.7 | 0.00 | 0.00 | 0.00 | 48 | 999.9 |
| 20260504194503 | 28 | 269 | 3.2 | 8.0 | 0.00 | 0.00 | 0.00 | 49 | 1000.0 |
| 20260504194004 | 27 | 270 | 3.2 | 17.7 | 0.00 | 0.00 | 0.00 | 50 | 1000.1 |
| 20260504193004 | 27 | 260 | 4.8 | 14.5 | 0.00 | 0.00 | 0.00 | 49 | 1000.2 |
| 20260504192503 | 27 | 259 | 4.8 | 14.5 | 0.00 | 0.00 | 0.00 | 50 | 1000.4 |
| 20260504192003 | 27 | 261 | 4.8 | 12.9 | 0.00 | 0.00 | 0.00 | 50 | 1000.4 |
| 20260504191503 | 27 | 281 | 4.8 | 12.9 | 0.00 | 0.00 | 0.00 | 49 | 1000.4 |
| 20260504191004 | 27 | 290 | 4.8 | 11.3 | 0.00 | 0.00 | 0.00 | 48 | 1000.4 |
| 20260504190503 | 27 | 267 | 3.2 | 11.3 | 0.00 | 0.00 | 0.00 | 49 | 1000.5 |
| 20260504190003 | 27 | 266 | 3.2 | 20.9 | 0.00 | 0.00 | 0.00 | 49 | 1000.4 |
| 20260504185503 | 27 | 265 | 4.8 | 20.9 | 0.00 | 0.00 | 0.00 | 48 | 1000.5 |
| 20260504185005 | 27 | 263 | 4.8 | 14.5 | 0.00 | 0.00 | 0.00 | 50 | 1000.6 |
| 20260504184503 | 27 | 265 | 4.8 | 19.3 | 0.00 | 0.00 | 0.00 | 49 | 1000.6 |
| 20260504184004 | 27 | 261 | 4.8 | 19.3 | 0.00 | 0.00 | 0.00 | 48 | 1000.8 |
| 20260504183503 | 27 | 254 | 4.8 | 17.7 | 0.00 | 0.00 | 0.00 | 49 | 1000.7 |
| 20260504182503 | 27 | 262 | 4.8 | 12.9 | 0.00 | 0.00 | 0.00 | 51 | 1000.8 |
| 20260504182003 | 27 | 256 | 4.8 | 12.9 | 0.00 | 0.00 | 0.00 | 51 | 1000.9 |
| 20260504181503 | 26 | 253 | 4.8 | 14.5 | 0.00 | 0.00 | 0.00 | 50 | 1000.9 |
| 20260504180502 | 26 | 262 | 6.4 | 19.3 | 0.00 | 0.00 | 0.00 | 48 | 1000.8 |
| 20260504175502 | 26 | 267 | 6.4 | 17.7 | 0.00 | 0.00 | 0.00 | 50 | 1001.0 |
| 20260504175003 | 26 | 262 | 6.4 | 17.7 | 0.00 | 0.00 | 0.00 | 50 | 1001.1 |
| 20260504174503 | 26 | 264 | 4.8 | 11.3 | 0.00 | 0.00 | 0.00 | 52 | 1001.2 |
| 20260504174003 | 26 | 272 | 4.8 | 14.5 | 0.00 | 0.00 | 0.00 | 52 | 1001.3 |
| 20260504173503 | 26 | 269 | 4.8 | 16.1 | 0.00 | 0.00 | 0.00 | 52 | 1001.4 |
| 20260504173003 | 26 | 266 | 6.4 | 20.9 | 0.00 | 0.00 | 0.00 | 51 | 1001.4 |
| 20260504172503 | 26 | 261 | 6.4 | 20.9 | 0.00 | 0.00 | 0.00 | 52 | 1001.5 |
| 20260504171504 | 25 | 261 | 6.4 | 19.3 | 0.00 | 0.00 | 0.00 | 50 | 1001.6 |
| 20260504170502 | 25 | 271 | 6.4 | 22.5 | 0.00 | 0.00 | 0.00 | 51 | 1001.7 |